createdAt,value
2022-12-23T00:01:36.370Z,0.52
2022-12-23T00:04:03.777Z,0.30
2022-12-23T00:06:31.152Z,0.50
2022-12-23T00:08:59.082Z,0.40
2022-12-23T00:11:26.851Z,0.32
2022-12-23T00:14:19.953Z,0.40
2022-12-23T00:16:48.714Z,0.38
2022-12-23T00:19:16.013Z,0.40
2022-12-23T00:21:43.263Z,0.28
2022-12-23T00:24:10.459Z,0.30
2022-12-23T00:26:37.676Z,0.30
2022-12-23T00:29:04.875Z,0.30
2022-12-23T00:31:32.301Z,0.43
2022-12-23T00:33:59.583Z,0.47
2022-12-23T00:36:30.638Z,0.30
2022-12-23T00:39:17.915Z,0.40
2022-12-23T00:42:04.161Z,0.40
2022-12-23T00:44:31.428Z,0.40
2022-12-23T00:46:58.830Z,0.20
2022-12-23T00:49:44.408Z,0.30
2022-12-23T00:52:12.979Z,0.40
2022-12-23T00:54:41.060Z,0.30
2022-12-23T00:57:08.339Z,0.30
2022-12-23T00:59:35.757Z,0.30
2022-12-23T01:02:23.571Z,0.30
2022-12-23T01:05:09.601Z,0.68
2022-12-23T01:07:36.878Z,0.77
2022-12-23T01:10:04.436Z,0.60
2022-12-23T01:12:31.691Z,0.50
2022-12-23T01:14:58.939Z,0.40
2022-12-23T01:17:26.169Z,0.40
2022-12-23T01:19:53.453Z,0.60
2022-12-23T01:22:20.720Z,0.30
2022-12-23T01:24:47.923Z,0.40
2022-12-23T01:27:15.151Z,0.40
2022-12-23T01:29:42.411Z,0.40
2022-12-23T01:32:09.732Z,0.40
2022-12-23T01:34:37.764Z,0.43
2022-12-23T01:37:05.614Z,0.40
2022-12-23T01:39:32.918Z,0.43
2022-12-23T01:42:18.821Z,0.40
2022-12-23T01:44:48.810Z,0.30
2022-12-23T01:47:28.237Z,0.32
2022-12-23T01:50:02.434Z,0.50
2022-12-23T01:52:30.143Z,0.55
2022-12-23T01:54:57.811Z,0.40
2022-12-23T01:57:25.529Z,0.40
2022-12-23T02:00:11.905Z,0.40
2022-12-23T02:02:58.960Z,0.35
2022-12-23T02:05:26.339Z,0.30
2022-12-23T02:08:13.039Z,0.30
2022-12-23T02:10:59.904Z,0.20
2022-12-23T02:13:27.085Z,0.20
2022-12-23T02:16:19.101Z,0.38
2022-12-23T02:18:46.383Z,0.38
2022-12-23T02:21:13.631Z,0.40
2022-12-23T02:23:53.253Z,0.30
2022-12-23T02:26:38.865Z,0.30
2022-12-23T02:29:21.089Z,0.35
2022-12-23T02:32:08.756Z,0.38
2022-12-23T02:34:54.799Z,0.30
2022-12-23T02:37:22.001Z,0.30
2022-12-23T02:39:49.210Z,0.30
2022-12-23T02:42:17.632Z,0.28
2022-12-23T02:45:00.288Z,0.20
2022-12-23T02:47:34.041Z,0.30
2022-12-23T02:50:04.547Z,0.30
2022-12-23T02:52:33.614Z,0.30
2022-12-23T02:55:10.221Z,0.40
2022-12-23T02:57:39.963Z,0.30
2022-12-23T03:00:07.870Z,0.50
2022-12-23T03:02:37.486Z,0.30
2022-12-23T03:05:05.024Z,0.20
2022-12-23T03:07:34.288Z,0.20
2022-12-23T03:10:09.662Z,0.20
2022-12-23T03:12:39.709Z,0.20
2022-12-23T03:15:25.381Z,0.20
2022-12-23T03:18:01.744Z,0.28
2022-12-23T03:20:38.489Z,0.40
2022-12-23T03:23:11.781Z,0.32
2022-12-23T03:25:50.866Z,0.20
2022-12-23T03:28:21.643Z,0.30
2022-12-23T03:30:52.118Z,0.30
2022-12-23T03:33:19.311Z,0.30
2022-12-23T03:35:49.158Z,0.30
2022-12-23T03:38:18.226Z,0.40
2022-12-23T03:40:47.569Z,0.40
2022-12-23T03:43:23.678Z,0.35
2022-12-23T03:45:54.864Z,0.40
2022-12-23T03:48:28.943Z,0.38
2022-12-23T03:51:01.985Z,0.20
2022-12-23T03:53:31.945Z,0.43
2022-12-23T03:56:07.399Z,0.50
2022-12-23T03:58:53.548Z,0.30
2022-12-23T04:01:20.882Z,0.30
2022-12-23T04:03:57.421Z,0.20
2022-12-23T04:06:25.137Z,0.30
2022-12-23T04:08:53.358Z,0.40
2022-12-23T04:11:20.642Z,0.32
2022-12-23T04:13:48.980Z,0.30
2022-12-23T04:16:16.624Z,0.20
2022-12-23T04:18:43.931Z,0.32
2022-12-23T04:21:11.162Z,0.20
2022-12-23T04:23:40.276Z,0.22
2022-12-23T04:26:07.545Z,0.47
2022-12-23T04:28:34.772Z,0.20
2022-12-23T04:31:02.010Z,0.30
2022-12-23T04:33:29.289Z,0.28
2022-12-23T04:35:56.519Z,0.40
2022-12-23T04:38:23.753Z,0.20
2022-12-23T04:40:51.043Z,0.20
2022-12-23T04:43:18.265Z,0.30
2022-12-23T04:45:45.541Z,0.20
2022-12-23T04:48:12.933Z,0.20
2022-12-23T04:50:40.566Z,0.20
2022-12-23T04:53:07.806Z,0.15
2022-12-23T04:55:35.092Z,0.15
2022-12-23T04:58:02.337Z,0.20
2022-12-23T05:00:32.744Z,0.10
2022-12-23T05:03:04.714Z,0.20
2022-12-23T05:05:31.994Z,0.15
2022-12-23T05:08:06.233Z,0.20
2022-12-23T05:10:33.496Z,0.10
2022-12-23T05:13:00.770Z,0.10
2022-12-23T05:15:27.992Z,0.20
2022-12-23T05:17:55.198Z,0.10
2022-12-23T05:20:22.441Z,0.17
2022-12-23T05:22:49.657Z,0.13
2022-12-23T05:25:16.915Z,0.20
2022-12-23T05:27:44.145Z,0.20
2022-12-23T05:30:11.660Z,0.20
2022-12-23T05:32:39.368Z,0.20
2022-12-23T05:35:07.083Z,0.15
2022-12-23T05:37:34.329Z,0.20
2022-12-23T05:40:01.746Z,0.13
2022-12-23T05:42:29.116Z,0.08
2022-12-23T05:44:56.357Z,0.17
2022-12-23T05:47:23.585Z,0.10
2022-12-23T05:49:50.854Z,0.20
2022-12-23T05:52:18.087Z,0.10
2022-12-23T05:54:45.355Z,0.10
2022-12-23T05:57:12.979Z,0.10
2022-12-23T05:59:40.166Z,0.10
2022-12-23T06:02:07.654Z,0.10
2022-12-23T06:04:35.000Z,0.20
2022-12-23T06:07:02.236Z,0.10
2022-12-23T06:09:29.467Z,0.20
2022-12-23T06:11:56.744Z,0.22
2022-12-23T06:14:28.848Z,0.20
2022-12-23T06:16:56.871Z,0.20
2022-12-23T06:19:24.124Z,0.10
2022-12-23T06:21:51.368Z,0.17
2022-12-23T06:24:18.567Z,0.10
2022-12-23T06:26:45.791Z,0.15
2022-12-23T06:29:13.102Z,0.10
2022-12-23T06:31:40.364Z,0.15
2022-12-23T06:34:07.635Z,0.20
2022-12-23T06:36:34.853Z,0.20
2022-12-23T06:39:02.104Z,0.10
2022-12-23T06:41:29.303Z,0.20
2022-12-23T06:43:56.570Z,0.20
2022-12-23T06:46:23.854Z,0.17
2022-12-23T06:48:51.216Z,0.10
2022-12-23T06:51:18.495Z,0.30
2022-12-23T06:53:45.768Z,0.20
2022-12-23T06:56:13.010Z,0.20
2022-12-23T06:58:40.243Z,0.20
2022-12-23T07:01:07.718Z,0.20
2022-12-23T07:03:35.819Z,0.20
2022-12-23T07:06:03.629Z,0.28
2022-12-23T07:08:30.868Z,0.20
2022-12-23T07:10:59.510Z,0.20
2022-12-23T07:13:27.337Z,0.20
2022-12-23T07:15:54.670Z,0.13
2022-12-23T07:18:27.012Z,0.20
2022-12-23T07:20:54.281Z,0.15
2022-12-23T07:23:21.526Z,0.20
2022-12-23T07:25:48.758Z,0.20
2022-12-23T07:28:16.041Z,0.20
2022-12-23T07:30:43.561Z,0.20
2022-12-23T07:33:10.794Z,0.20
2022-12-23T07:35:38.061Z,0.30
2022-12-23T07:38:05.282Z,0.30
2022-12-23T07:40:32.802Z,0.30
2022-12-23T07:43:00.256Z,0.20
2022-12-23T07:45:28.082Z,0.30
2022-12-23T07:47:55.858Z,0.20
2022-12-23T07:50:23.313Z,0.30
2022-12-23T07:52:50.549Z,0.20
2022-12-23T07:55:17.840Z,0.30
2022-12-23T07:57:48.357Z,0.20
2022-12-23T08:00:15.749Z,0.30
2022-12-23T08:02:43.724Z,0.20
2022-12-23T08:05:11.752Z,0.32
2022-12-23T08:07:39.461Z,0.20
2022-12-23T08:10:07.495Z,0.28
2022-12-23T08:12:35.033Z,0.10
2022-12-23T08:15:02.310Z,0.38
2022-12-23T08:17:30.853Z,0.20
2022-12-23T08:19:58.128Z,0.20
2022-12-23T08:22:25.557Z,0.20
2022-12-23T08:24:53.268Z,0.15
2022-12-23T08:27:20.573Z,0.20
2022-12-23T08:29:47.903Z,0.20
2022-12-23T08:32:15.163Z,0.20
2022-12-23T08:34:42.412Z,0.20
2022-12-23T08:37:09.962Z,0.20
2022-12-23T08:39:37.242Z,0.15
2022-12-23T08:42:04.546Z,0.20
2022-12-23T08:44:32.740Z,0.20
2022-12-23T08:47:00.020Z,0.20
2022-12-23T08:49:27.260Z,0.20
2022-12-23T08:51:54.496Z,0.10
2022-12-23T08:54:22.273Z,0.20
2022-12-23T08:56:49.503Z,0.20
2022-12-23T08:59:19.407Z,0.20
2022-12-23T09:01:47.900Z,0.22
2022-12-23T09:04:15.561Z,0.30
2022-12-23T09:06:43.525Z,0.40
2022-12-23T09:09:12.056Z,0.50
2022-12-23T09:11:39.365Z,0.52
2022-12-23T09:14:08.725Z,0.80
2022-12-23T09:16:36.318Z,0.70
2022-12-23T09:19:03.851Z,1.00
2022-12-23T09:21:31.396Z,0.45
2022-12-23T09:23:58.675Z,0.55
2022-12-23T09:26:27.329Z,0.40
2022-12-23T09:28:54.812Z,0.30
2022-12-23T09:31:22.654Z,0.30
2022-12-23T09:33:51.155Z,0.30
2022-12-23T09:36:18.721Z,0.40
2022-12-23T09:38:46.053Z,0.70
2022-12-23T09:41:29.408Z,0.52
2022-12-23T09:43:59.444Z,0.38
2022-12-23T09:46:28.585Z,0.40
2022-12-23T09:49:02.013Z,0.30
2022-12-23T09:51:30.001Z,0.35
2022-12-23T09:54:17.688Z,0.35
2022-12-23T09:57:08.144Z,0.30
2022-12-23T09:59:50.488Z,0.20
2022-12-23T10:02:20.572Z,0.30
2022-12-23T10:04:54.729Z,0.20
2022-12-23T10:07:23.130Z,0.20
2022-12-23T10:09:51.993Z,0.20
2022-12-23T10:12:29.614Z,0.40
2022-12-23T10:14:59.436Z,0.50
2022-12-23T10:17:29.000Z,0.70
2022-12-23T10:19:59.153Z,0.88
2022-12-23T10:22:29.105Z,0.70
2022-12-23T10:24:57.676Z,0.65
2022-12-23T10:27:25.164Z,0.80
2022-12-23T10:29:52.698Z,0.55
2022-12-23T10:32:38.391Z,0.70
2022-12-23T10:35:08.454Z,0.60
2022-12-23T10:37:39.705Z,0.82
2022-12-23T10:40:15.855Z,0.52
2022-12-23T10:42:45.823Z,0.63
2022-12-23T10:45:18.928Z,0.77
2022-12-23T10:47:49.055Z,0.80
2022-12-23T10:50:35.183Z,0.52
2022-12-23T10:53:03.986Z,0.75
2022-12-23T10:55:34.331Z,0.60
2022-12-23T10:58:18.472Z,0.70
2022-12-23T11:00:57.154Z,0.70
2022-12-23T11:03:33.145Z,0.52
2022-12-23T11:06:00.911Z,0.38
2022-12-23T11:08:29.994Z,0.40
2022-12-23T11:10:57.736Z,0.30
2022-12-23T11:13:35.063Z,0.22
2022-12-23T11:16:19.586Z,0.32
2022-12-23T11:18:53.906Z,0.40
2022-12-23T11:21:21.462Z,0.20
2022-12-23T11:23:48.880Z,0.32
2022-12-23T11:26:20.949Z,0.20
2022-12-23T11:28:53.365Z,0.28
2022-12-23T11:31:28.121Z,0.20
2022-12-23T11:33:59.836Z,0.30
2022-12-23T11:36:28.139Z,0.20
2022-12-23T11:39:03.461Z,0.20
2022-12-23T11:41:34.929Z,0.20
2022-12-23T11:44:17.451Z,0.20
2022-12-23T11:46:44.708Z,0.20
2022-12-23T11:49:15.045Z,0.40
2022-12-23T11:51:43.234Z,0.60
2022-12-23T11:54:16.770Z,0.30
2022-12-23T11:56:44.481Z,0.40
2022-12-23T11:59:23.684Z,0.40
2022-12-23T12:01:50.959Z,0.43
2022-12-23T12:04:21.546Z,0.50
2022-12-23T12:06:56.023Z,0.52
2022-12-23T12:09:24.479Z,0.40
2022-12-23T12:11:54.200Z,0.30
2022-12-23T12:14:23.667Z,0.40
2022-12-23T12:17:09.759Z,0.40
2022-12-23T12:19:44.599Z,0.45
2022-12-23T12:22:14.816Z,0.52
2022-12-23T12:24:47.711Z,0.60
2022-12-23T12:27:15.427Z,0.70
2022-12-23T12:29:42.886Z,0.40
2022-12-23T12:32:17.979Z,0.47
2022-12-23T12:34:52.229Z,0.50
2022-12-23T12:37:28.007Z,0.40
2022-12-23T12:40:08.928Z,0.40
2022-12-23T12:42:37.544Z,0.50
2022-12-23T12:45:25.038Z,0.50
2022-12-23T12:47:55.788Z,0.35
2022-12-23T12:50:28.509Z,0.30
2022-12-23T12:52:57.413Z,0.40
2022-12-23T12:55:30.590Z,0.30
2022-12-23T12:57:58.130Z,0.43
2022-12-23T13:00:26.188Z,0.30
2022-12-23T13:03:12.287Z,0.40
2022-12-23T13:05:57.827Z,0.30
2022-12-23T13:08:34.205Z,0.25
2022-12-23T13:11:10.797Z,0.35
2022-12-23T13:13:57.943Z,0.50
2022-12-23T13:16:43.974Z,0.20
2022-12-23T13:19:11.272Z,0.40
2022-12-23T13:21:44.118Z,0.30
2022-12-23T13:24:14.373Z,0.50
2022-12-23T13:26:58.381Z,0.30
2022-12-23T13:29:31.400Z,0.40
2022-12-23T13:32:07.587Z,0.30
2022-12-23T13:34:55.058Z,0.30
2022-12-23T13:37:37.723Z,0.30
2022-12-23T13:40:15.113Z,0.40
2022-12-23T13:42:45.365Z,0.40
2022-12-23T13:45:15.391Z,0.40
2022-12-23T13:47:45.464Z,0.40
2022-12-23T13:50:25.219Z,0.40
2022-12-23T13:53:07.665Z,0.40
2022-12-23T13:55:53.402Z,0.50
2022-12-23T13:58:25.984Z,0.50
2022-12-23T14:01:19.682Z,0.50
2022-12-23T14:03:49.638Z,0.40
2022-12-23T14:06:27.623Z,0.40
2022-12-23T14:08:55.763Z,0.47
2022-12-23T14:11:25.731Z,0.50
2022-12-23T14:13:53.092Z,0.50
2022-12-23T14:16:20.436Z,0.50
2022-12-23T14:19:10.484Z,0.40
2022-12-23T14:21:43.572Z,0.35
2022-12-23T14:24:22.690Z,0.50
2022-12-23T14:27:05.098Z,0.40
2022-12-23T14:29:38.260Z,0.55
2022-12-23T14:32:05.886Z,0.40
2022-12-23T14:34:33.915Z,0.32
2022-12-23T14:37:19.864Z,0.30
2022-12-23T14:39:47.406Z,0.30
2022-12-23T14:42:16.932Z,0.40
2022-12-23T14:44:50.452Z,0.30
2022-12-23T14:47:32.000Z,0.30
2022-12-23T14:50:19.407Z,0.40
2022-12-23T14:52:51.192Z,0.28
2022-12-23T14:55:32.587Z,0.30
2022-12-23T14:58:05.723Z,0.28
2022-12-23T15:00:45.897Z,0.20
2022-12-23T15:03:13.371Z,0.30
2022-12-23T15:05:41.346Z,0.30
2022-12-23T15:08:21.073Z,0.30
2022-12-23T15:10:48.328Z,0.40
2022-12-23T15:13:18.137Z,0.50
2022-12-23T15:15:57.416Z,0.35
2022-12-23T15:18:28.609Z,0.35
2022-12-23T15:20:59.837Z,0.30
2022-12-23T15:23:27.223Z,0.30
2022-12-23T15:25:56.696Z,0.22
2022-12-23T15:28:25.567Z,0.30
2022-12-23T15:30:57.337Z,0.40
2022-12-23T15:34:01.705Z,0.40
2022-12-23T15:36:14.119Z,0.40
2022-12-23T15:38:41.713Z,0.30
2022-12-23T15:41:16.242Z,0.43
2022-12-23T15:43:44.152Z,0.30
2022-12-23T15:46:28.585Z,0.30
2022-12-23T15:48:57.502Z,0.30
2022-12-23T15:52:05.798Z,0.20
2022-12-23T15:54:27.798Z,0.52
2022-12-23T15:56:57.180Z,0.30
2022-12-23T15:59:30.248Z,0.30
2022-12-23T16:01:57.855Z,0.30
2022-12-23T16:04:27.910Z,0.30
2022-12-23T16:06:55.858Z,0.20
2022-12-23T16:09:30.912Z,0.22
2022-12-23T16:12:00.599Z,0.30
2022-12-23T16:14:27.853Z,0.30
2022-12-23T16:16:59.060Z,0.32
2022-12-23T16:20:01.714Z,0.40
2022-12-23T16:22:30.511Z,0.30
2022-12-23T16:25:00.196Z,0.35
2022-12-23T16:27:35.270Z,0.40
2022-12-23T16:30:03.447Z,0.32
2022-12-23T16:32:30.862Z,0.30
2022-12-23T16:35:09.482Z,0.30
2022-12-23T16:37:36.686Z,0.30
2022-12-23T16:40:10.355Z,0.32
2022-12-23T16:42:37.622Z,0.20
2022-12-23T16:45:04.921Z,0.30
2022-12-23T16:47:32.242Z,0.30
2022-12-23T16:49:59.485Z,0.28
2022-12-23T16:52:26.679Z,0.28
2022-12-23T16:54:53.978Z,0.40
2022-12-23T16:57:21.203Z,0.32
2022-12-23T16:59:50.123Z,0.40
2022-12-23T17:02:23.097Z,0.30
2022-12-23T17:04:51.254Z,0.22
2022-12-23T17:07:18.474Z,0.30
2022-12-23T17:09:45.720Z,0.20
2022-12-23T17:12:13.242Z,0.40
2022-12-23T17:14:40.588Z,0.30
2022-12-23T17:17:15.688Z,0.40
2022-12-23T17:19:43.102Z,0.30
2022-12-23T17:22:12.155Z,0.40
2022-12-23T17:24:39.619Z,0.30
2022-12-23T17:27:20.765Z,0.52
2022-12-23T17:29:48.063Z,0.40
2022-12-23T17:32:17.572Z,0.47
2022-12-23T17:34:45.415Z,0.50
2022-12-23T17:37:16.385Z,0.50
2022-12-23T17:39:44.102Z,0.50
2022-12-23T17:42:18.867Z,0.30
2022-12-23T17:44:49.325Z,0.43
2022-12-23T17:47:21.449Z,0.47
2022-12-23T17:49:49.329Z,0.47
2022-12-23T17:52:17.678Z,1.30
2022-12-23T17:54:45.651Z,1.08
2022-12-23T17:57:20.778Z,0.40
2022-12-23T17:59:49.049Z,0.68
2022-12-23T18:02:23.563Z,0.30
2022-12-23T18:04:51.468Z,0.50
2022-12-23T18:07:19.425Z,0.40
2022-12-23T18:09:47.111Z,0.40
2022-12-23T18:12:26.550Z,0.40
2022-12-23T18:14:53.874Z,0.47
2022-12-23T18:17:21.159Z,0.40
2022-12-23T18:19:48.482Z,0.40
2022-12-23T18:22:17.567Z,0.50
2022-12-23T18:24:45.012Z,0.57
2022-12-23T18:27:22.019Z,0.40
2022-12-23T18:29:49.679Z,0.50
2022-12-23T18:32:27.184Z,0.63
2022-12-23T18:34:55.148Z,0.60
2022-12-23T18:37:23.123Z,0.77
2022-12-23T18:39:50.363Z,0.60
2022-12-23T18:42:19.047Z,0.85
2022-12-23T18:44:48.135Z,0.70
2022-12-23T18:47:15.409Z,0.80
2022-12-23T18:49:42.655Z,0.95
2022-12-23T18:52:14.846Z,0.80
2022-12-23T18:54:42.081Z,0.73
2022-12-23T18:57:11.280Z,0.70
2022-12-23T18:59:39.693Z,0.68
2022-12-23T19:02:07.268Z,0.70
2022-12-23T19:04:34.702Z,0.60
2022-12-23T19:07:02.553Z,1.00
2022-12-23T19:09:29.784Z,0.60
2022-12-23T19:11:57.051Z,1.10
2022-12-23T19:14:24.351Z,0.57
2022-12-23T19:16:52.721Z,0.70
2022-12-23T19:19:20.636Z,0.40
2022-12-23T19:21:47.927Z,0.80
2022-12-23T19:24:15.156Z,0.77
2022-12-23T19:26:42.473Z,1.42
2022-12-23T19:29:09.825Z,0.93
2022-12-23T19:31:37.030Z,0.90
2022-12-23T19:34:08.116Z,1.10
2022-12-23T19:36:40.049Z,2.17
2022-12-23T19:39:07.281Z,1.08
2022-12-23T19:41:34.462Z,1.25
2022-12-23T19:44:01.912Z,1.27
2022-12-23T19:46:29.461Z,2.33
2022-12-23T19:48:56.775Z,2.85
2022-12-23T19:51:23.990Z,1.33
2022-12-23T19:53:52.774Z,0.88
2022-12-23T19:56:23.317Z,1.20
2022-12-23T19:58:50.815Z,0.80
2022-12-23T20:01:23.972Z,0.52
2022-12-23T20:03:52.194Z,0.68
2022-12-23T20:06:33.054Z,0.40
2022-12-23T20:09:04.200Z,0.60
2022-12-23T20:11:34.055Z,0.70
2022-12-23T20:14:02.353Z,0.77
2022-12-23T20:16:29.871Z,0.63
2022-12-23T20:18:57.435Z,0.60
2022-12-23T20:21:24.626Z,0.40
2022-12-23T20:23:52.224Z,0.50
2022-12-23T20:26:20.698Z,0.88
2022-12-23T20:28:47.978Z,0.90
2022-12-23T20:31:16.618Z,1.00
2022-12-23T20:33:44.563Z,1.13
2022-12-23T20:36:13.116Z,0.90
2022-12-23T20:38:41.338Z,0.90
2022-12-23T20:41:09.816Z,1.50
2022-12-23T20:43:37.133Z,1.58
2022-12-23T20:46:04.981Z,1.30
2022-12-23T20:48:34.276Z,1.50
2022-12-23T20:51:09.663Z,1.50
2022-12-23T20:53:37.090Z,1.38
2022-12-23T20:56:06.105Z,1.27
2022-12-23T20:58:52.446Z,1.20
2022-12-23T21:01:19.696Z,1.83
2022-12-23T21:03:47.733Z,1.83
2022-12-23T21:06:15.071Z,1.20
2022-12-23T21:08:43.384Z,1.10
2022-12-23T21:11:10.893Z,1.20
2022-12-23T21:13:40.476Z,1.20
2022-12-23T21:16:09.683Z,1.00
2022-12-23T21:18:40.128Z,0.90
2022-12-23T21:21:07.801Z,1.60
2022-12-23T21:23:37.804Z,1.77
2022-12-23T21:26:07.877Z,1.20
2022-12-23T21:28:35.453Z,1.20
2022-12-23T21:31:03.521Z,1.08
2022-12-23T21:33:31.190Z,1.80
2022-12-23T21:35:59.894Z,0.93
2022-12-23T21:38:27.142Z,1.17
2022-12-23T21:40:59.769Z,1.80
2022-12-23T21:43:27.076Z,1.42
2022-12-23T21:45:58.453Z,1.40
2022-12-23T21:48:26.182Z,1.25
2022-12-23T21:50:53.532Z,1.17
2022-12-23T21:53:21.397Z,1.60
2022-12-23T21:55:49.323Z,1.50
2022-12-23T21:58:16.768Z,1.73
2022-12-23T22:00:45.318Z,1.40
2022-12-23T22:03:12.677Z,3.45
2022-12-23T22:05:39.896Z,1.65
2022-12-23T22:08:07.413Z,1.70
2022-12-23T22:10:38.385Z,2.10
2022-12-23T22:13:05.858Z,1.80
2022-12-23T22:15:33.234Z,1.50
2022-12-23T22:18:01.684Z,1.38
2022-12-23T22:20:28.903Z,2.38
2022-12-23T22:22:56.108Z,1.48
2022-12-23T22:25:23.462Z,1.52
2022-12-23T22:27:50.729Z,1.40
2022-12-23T22:30:18.005Z,1.60
2022-12-23T22:32:45.218Z,1.42
2022-12-23T22:35:12.491Z,1.58
2022-12-23T22:37:39.761Z,1.63
2022-12-23T22:40:07.741Z,1.42
2022-12-23T22:42:34.999Z,1.58
2022-12-23T22:45:02.321Z,1.55
2022-12-23T22:47:29.722Z,1.60
2022-12-23T22:49:57.045Z,1.85
2022-12-23T22:52:24.302Z,1.33
2022-12-23T22:54:51.538Z,1.60
2022-12-23T22:57:18.804Z,1.45
2022-12-23T22:59:46.144Z,1.23
2022-12-23T23:02:13.659Z,1.63
2022-12-23T23:04:40.927Z,1.83
2022-12-23T23:07:08.382Z,1.52
2022-12-23T23:09:35.739Z,1.30
2022-12-23T23:12:03.054Z,2.05
2022-12-23T23:14:50.207Z,2.10
2022-12-23T23:17:17.438Z,1.58
2022-12-23T23:19:44.649Z,1.30
2022-12-23T23:22:12.067Z,1.60
2022-12-23T23:24:39.288Z,1.40
2022-12-23T23:27:07.047Z,1.40
2022-12-23T23:29:34.473Z,1.00
2022-12-23T23:32:02.139Z,1.48
2022-12-23T23:34:29.621Z,0.90
2022-12-23T23:36:56.962Z,1.45
2022-12-23T23:39:24.221Z,1.40
2022-12-23T23:41:51.630Z,1.17
2022-12-23T23:44:19.000Z,1.20
2022-12-23T23:46:46.663Z,1.00
2022-12-23T23:49:14.065Z,0.95
2022-12-23T23:51:41.972Z,1.60
2022-12-23T23:54:09.604Z,1.33
2022-12-23T23:56:39.225Z,1.10
2022-12-23T23:59:07.237Z,1.40
